Time;durP1;ratioP1;P1;durP2;ratioP2;P2;SDS_P1;SDS_P2;PMS_P1;PMS_P2;Temp;Humidity;BMP_temperature;BMP_pressure;BME280_temperature;BME280_humidity;BME280_pressure;Samples;Min_cycle;Max_cycle;Signal;HPM_P1;HPM_P2
2021/12/04 00:00:45;;;;;;;0.77;0.47;;;11.10;1.00;;;;;;5050729;28;20290;-68
2021/12/04 00:03:12;;;;;;;0.87;0.87;;;11.10;1.00;;;;;;5050852;28;20269;-68
2021/12/04 00:05:42;;;;;;;4.63;0.80;;;11.10;1.00;;;;;;5050394;28;20199;-67
2021/12/04 00:08:09;;;;;;;0.40;0.40;;;11.20;1.00;;;;;;5050524;28;20210;-67
2021/12/04 00:10:36;;;;;;;1.80;0.50;;;11.10;1.00;;;;;;5050607;28;20678;-68
2021/12/04 00:13:03;;;;;;;1.60;0.90;;;11.00;1.00;;;;;;5051211;28;20211;-66
2021/12/04 00:15:32;;;;;;;0.93;0.67;;;11.00;1.00;;;;;;5051027;28;20635;-66
2021/12/04 00:18:00;;;;;;;1.03;0.60;;;11.00;1.00;;;;;;5050506;28;20569;-66
2021/12/04 00:20:30;;;;;;;1.57;0.73;;;11.00;1.00;;;;;;5050319;28;20264;-70
2021/12/04 00:22:59;;;;;;;1.27;0.60;;;11.10;1.00;;;;;;5052178;28;20231;-66
2021/12/04 00:25:27;;;;;;;1.47;0.70;;;11.10;1.00;;;;;;5050819;28;20736;-66
2021/12/04 00:27:54;;;;;;;1.53;0.70;;;11.10;1.00;;;;;;5050216;28;20776;-66
2021/12/04 00:30:22;;;;;;;1.23;0.47;;;11.10;1.00;;;;;;5050509;28;20206;-66
2021/12/04 00:32:57;;;;;;;1.80;0.63;;;11.20;1.00;;;;;;5053283;28;20207;-66
2021/12/04 00:35:34;;;;;;;5.40;0.70;;;11.30;1.00;;;;;;5050534;28;20657;-66
2021/12/04 00:49:10;;;;;;;0.50;0.47;;;11.30;1.00;;;;;;5050296;28;20565;-73
2021/12/04 00:51:38;;;;;;;0.90;0.50;;;11.30;1.00;;;;;;5050247;28;20271;-69
2021/12/04 00:54:06;;;;;;;0.83;0.80;;;11.40;1.00;;;;;;5050082;28;20611;-69
2021/12/04 00:56:33;;;;;;;0.80;0.50;;;11.40;1.00;;;;;;5050398;28;20282;-68
2021/12/04 00:59:00;;;;;;;0.50;0.40;;;11.40;1.00;;;;;;5050465;28;20207;-68
2021/12/04 01:01:28;;;;;;;0.80;0.40;;;11.40;1.00;;;;;;5050523;28;20257;-68
2021/12/04 01:03:55;;;;;;;1.13;0.43;;;11.50;1.00;;;;;;5049756;28;20717;-68
2021/12/04 01:06:24;;;;;;;2.43;1.77;;;11.40;1.00;;;;;;5050364;28;20203;-73
2021/12/04 01:08:51;;;;;;;0.77;0.40;;;11.50;1.00;;;;;;5055492;28;20211;-68
2021/12/04 01:11:18;;;;;;;1.33;0.93;;;11.50;1.00;;;;;;5050142;28;20257;-68
2021/12/04 01:13:45;;;;;;;0.67;0.50;;;11.50;1.00;;;;;;5049795;28;20614;-67
2021/12/04 01:16:12;;;;;;;0.47;0.30;;;11.50;1.00;;;;;;5050255;28;20202;-69
2021/12/04 01:18:39;;;;;;;0.50;0.40;;;11.50;1.00;;;;;;5049640;28;20242;-69
2021/12/04 01:21:06;;;;;;;0.60;0.30;;;11.50;1.00;;;;;;5049987;28;20268;-70
2021/12/04 01:23:34;;;;;;;0.30;0.30;;;11.50;1.00;;;;;;5050433;28;20235;-68
2021/12/04 01:26:01;;;;;;;0.90;0.70;;;11.50;1.00;;;;;;5050347;28;20203;-68
2021/12/04 01:28:28;;;;;;;0.60;0.40;;;11.60;1.00;;;;;;5051824;28;20214;-68
2021/12/04 01:30:56;;;;;;;1.60;0.43;;;11.60;1.00;;;;;;5053295;28;20211;-67
2021/12/04 01:33:22;;;;;;;3.60;0.70;;;11.60;1.00;;;;;;5053563;28;20658;-68
2021/12/04 01:35:49;;;;;;;0.63;0.30;;;11.60;1.00;;;;;;5053124;28;20597;-69
2021/12/04 01:38:16;;;;;;;1.00;0.47;;;11.70;99.90;;;;;;5053514;28;20203;-69
2021/12/04 01:40:45;;;;;;;0.50;0.40;;;11.70;99.90;;;;;;5053307;28;20199;-68
2021/12/04 01:43:12;;;;;;;0.23;0.20;;;11.70;99.90;;;;;;5053342;28;20234;-68
2021/12/04 01:45:39;;;;;;;0.60;0.40;;;11.70;99.90;;;;;;5053096;28;20260;-68
2021/12/04 01:48:06;;;;;;;0.60;0.50;;;11.60;99.90;;;;;;5053264;28;20285;-69
2021/12/04 01:50:35;;;;;;;0.43;0.43;;;11.60;99.90;;;;;;5053846;28;20260;-69
2021/12/04 01:53:02;;;;;;;0.40;0.33;;;11.60;99.90;;;;;;5053529;28;20213;-69
2021/12/04 01:55:32;;;;;;;0.70;0.50;;;11.60;99.90;;;;;;5053472;28;20244;-69
2021/12/04 01:58:01;;;;;;;0.30;0.30;;;11.50;99.90;;;;;;5052825;28;20214;-69
2021/12/04 02:00:29;;;;;;;1.17;0.40;;;11.50;99.90;;;;;;5053100;28;20202;-69
2021/12/04 02:02:56;;;;;;;0.50;0.30;;;11.50;99.90;;;;;;5052558;28;20235;-69
2021/12/04 02:05:24;;;;;;;0.93;0.60;;;11.40;99.90;;;;;;5053267;28;20248;-68
2021/12/04 02:07:51;;;;;;;0.60;0.60;;;11.50;99.90;;;;;;5052471;28;20203;-68
2021/12/04 02:10:18;;;;;;;0.37;0.30;;;11.40;99.90;;;;;;5053074;28;20279;-68
2021/12/04 02:12:47;;;;;;;0.50;0.40;;;11.20;1.00;;;;;;5052608;28;20210;-68
2021/12/04 02:15:17;;;;;;;0.40;0.30;;;11.10;1.00;;;;;;5052897;28;20222;-70
2021/12/04 02:17:45;;;;;;;1.27;0.50;;;11.00;1.00;;;;;;5052447;28;20207;-70
2021/12/04 02:20:17;;;;;;;0.50;0.50;;;11.00;1.00;;;;;;5052245;28;20217;-68
2021/12/04 02:22:45;;;;;;;1.07;0.40;;;10.90;1.00;;;;;;5052293;28;20268;-68
2021/12/04 02:25:13;;;;;;;0.63;0.47;;;10.90;1.00;;;;;;5052638;28;20663;-68
2021/12/04 02:27:41;;;;;;;1.03;0.70;;;10.80;1.00;;;;;;5052241;28;20203;-68
2021/12/04 02:30:10;;;;;;;0.70;0.40;;;10.70;1.00;;;;;;5052559;28;20203;-68
2021/12/04 02:32:38;;;;;;;0.30;0.30;;;10.60;1.00;;;;;;5055282;28;20259;-68
2021/12/04 02:35:06;;;;;;;0.77;0.50;;;10.50;1.00;;;;;;5052388;28;20203;-68
2021/12/04 02:37:36;;;;;;;0.37;0.37;;;10.40;1.00;;;;;;5052953;28;20203;-70
2021/12/04 02:40:04;;;;;;;0.87;0.60;;;10.30;1.00;;;;;;5052649;28;20670;-71
2021/12/04 02:42:32;;;;;;;0.87;0.63;;;10.30;1.00;;;;;;5052584;28;20615;-70
2021/12/04 02:45:00;;;;;;;0.33;0.30;;;10.30;1.00;;;;;;5052252;28;20664;-70
2021/12/04 02:47:29;;;;;;;0.60;0.43;;;10.20;1.00;;;;;;5052220;28;20607;-70
2021/12/04 02:49:57;;;;;;;1.47;0.27;;;10.10;1.00;;;;;;5051580;28;20229;-70
2021/12/04 02:52:25;;;;;;;0.37;0.37;;;10.30;1.00;;;;;;5052050;28;20210;-70
2021/12/04 02:54:53;;;;;;;0.40;0.30;;;10.20;1.00;;;;;;5051695;28;20203;-71
2021/12/04 02:57:21;;;;;;;0.63;0.50;;;10.30;1.00;;;;;;5052289;28;20203;-68
2021/12/04 02:59:50;;;;;;;0.40;0.37;;;10.30;1.00;;;;;;5051953;28;20253;-68
2021/12/04 03:02:20;;;;;;;2.50;0.50;;;10.30;1.00;;;;;;5052105;28;20217;-68
2021/12/04 03:04:48;;;;;;;0.60;0.50;;;10.20;1.00;;;;;;5051412;28;20270;-68
2021/12/04 03:07:16;;;;;;;2.23;1.03;;;10.20;1.00;;;;;;5051681;28;20720;-69
2021/12/04 03:09:43;;;;;;;1.53;0.60;;;10.10;1.00;;;;;;5051476;28;20211;-69
2021/12/04 03:12:12;;;;;;;0.50;0.33;;;10.00;1.00;;;;;;5052014;28;20207;-69
2021/12/04 03:14:40;;;;;;;0.70;0.50;;;9.90;1.00;;;;;;5051294;28;20206;-69
2021/12/04 03:17:08;;;;;;;1.10;0.70;;;9.90;1.00;;;;;;5051792;28;20695;-69
2021/12/04 03:19:37;;;;;;;2.27;1.30;;;9.80;1.00;;;;;;5051264;28;20202;-69
2021/12/04 03:22:05;;;;;;;1.40;0.80;;;10.00;1.00;;;;;;5051543;28;20203;-69
2021/12/04 03:24:35;;;;;;;1.40;0.97;;;10.10;1.00;;;;;;5051981;28;20238;-68
2021/12/04 03:27:02;;;;;;;1.20;0.90;;;10.30;1.00;;;;;;5051595;28;20671;-69
2021/12/04 03:29:32;;;;;;;0.90;0.50;;;10.40;1.00;;;;;;5051778;28;20207;-69
2021/12/04 03:40:37;;;;;;;0.80;0.60;;;10.50;1.00;;;;;;5051273;28;20198;-69
2021/12/04 03:43:07;;;;;;;0.60;0.57;;;10.60;1.00;;;;;;5051435;28;20214;-71
2021/12/04 03:45:37;;;;;;;1.87;0.87;;;10.60;1.00;;;;;;5051508;28;20740;-70
2021/12/04 03:48:07;;;;;;;1.63;0.73;;;10.70;1.00;;;;;;5050964;28;20208;-70
2021/12/04 03:50:34;;;;;;;0.73;0.40;;;10.70;1.00;;;;;;5050611;28;20209;-70
2021/12/04 03:53:01;;;;;;;0.40;0.30;;;10.70;99.90;;;;;;5050998;28;20268;-70
2021/12/04 03:55:28;;;;;;;0.50;0.43;;;10.60;1.00;;;;;;5050917;28;20199;-70
2021/12/04 03:57:55;;;;;;;0.70;0.60;;;10.50;1.00;;;;;;5050747;28;20267;-70
2021/12/04 04:00:25;;;;;;;0.73;0.60;;;10.50;99.90;;;;;;5051132;28;20260;-70
2021/12/04 04:02:53;;;;;;;1.07;0.40;;;10.50;99.90;;;;;;5050305;28;20743;-70
2021/12/04 04:05:20;;;;;;;1.13;0.70;;;10.40;99.90;;;;;;5050889;28;20231;-68
2021/12/04 04:07:47;;;;;;;1.73;0.50;;;10.40;99.90;;;;;;5050190;28;20243;-69
2021/12/04 04:10:14;;;;;;;0.63;0.50;;;10.50;99.90;;;;;;5050771;28;20238;-69
2021/12/04 04:12:41;;;;;;;0.37;0.30;;;10.60;99.90;;;;;;5050557;28;20256;-69
2021/12/04 04:15:09;;;;;;;1.33;0.40;;;10.50;99.90;;;;;;5050693;28;20670;-69
2021/12/04 04:17:42;;;;;;;0.83;0.60;;;10.60;99.90;;;;;;5050556;28;20203;-69
2021/12/04 04:20:12;;;;;;;0.87;0.40;;;10.50;99.90;;;;;;5050555;28;20649;-69
2021/12/04 04:22:39;;;;;;;0.40;0.30;;;10.30;99.90;;;;;;5050408;28;20758;-68
2021/12/04 04:25:08;;;;;;;0.30;0.30;;;10.30;99.90;;;;;;5050605;28;20235;-68
2021/12/04 04:27:35;;;;;;;0.30;0.30;;;10.30;99.90;;;;;;5050824;28;20203;-68
2021/12/04 04:30:02;;;;;;;0.40;0.30;;;10.20;99.90;;;;;;5051017;28;20203;-68
2021/12/04 04:32:30;;;;;;;1.40;0.40;;;10.20;1.00;;;;;;5050457;28;20202;-68
2021/12/04 04:35:06;;;;;;;0.77;0.40;;;9.90;1.00;;;;;;5053033;28;20207;-68
2021/12/04 04:37:40;;;;;;;0.30;0.30;;;9.80;1.00;;;;;;5050755;28;20202;-68
2021/12/04 04:59:45;;;;;;;0.97;0.70;;;9.60;1.00;;;;;;5050434;28;20210;-68
2021/12/04 05:10:52;;;;;;;0.97;0.77;;;10.00;1.00;;;;;;5054015;28;20685;-68
2021/12/04 05:13:21;;;;;;;0.70;0.50;;;9.90;1.00;;;;;;5054063;28;20229;-68
2021/12/04 05:15:59;;;;;;;1.37;0.67;;;10.00;1.00;;;;;;5053572;28;20213;-68
2021/12/04 05:18:37;;;;;;;0.77;0.63;;;10.00;1.00;;;;;;5053975;28;20203;-68
2021/12/04 05:21:07;;;;;;;2.73;0.70;;;10.00;1.00;;;;;;5053937;28;20658;-70
2021/12/04 05:23:37;;;;;;;1.10;0.77;;;10.10;1.00;;;;;;5054106;28;20554;-70
2021/12/04 05:26:07;;;;;;;2.10;0.67;;;10.10;1.00;;;;;;5054248;28;20206;-72
2021/12/04 05:28:35;;;;;;;1.23;0.80;;;10.10;1.00;;;;;;5053671;28;20203;-74
2021/12/04 05:31:02;;;;;;;1.33;0.90;;;10.10;1.00;;;;;;5054149;28;20265;-71
2021/12/04 05:33:29;;;;;;;0.80;0.67;;;10.10;1.00;;;;;;5054219;28;20199;-72
2021/12/04 05:35:57;;;;;;;0.80;0.50;;;10.10;1.00;;;;;;5053254;28;20634;-72
2021/12/04 05:38:24;;;;;;;4.97;1.00;;;10.10;1.00;;;;;;5053865;28;20260;-72
2021/12/04 05:40:51;;;;;;;1.40;0.80;;;10.10;1.00;;;;;;5053277;28;20269;-72
2021/12/04 05:43:22;;;;;;;2.40;0.70;;;10.10;99.90;;;;;;5053153;28;20203;-72
2021/12/04 05:45:54;;;;;;;1.40;1.10;;;10.10;99.90;;;;;;5053136;28;20234;-72
2021/12/04 05:48:29;;;;;;;1.93;0.93;;;10.10;99.90;;;;;;5053453;28;20276;-72
2021/12/04 05:53:54;;;;;;;1.97;0.90;;;10.10;99.90;;;;;;5027455;28;20209;-73
2021/12/04 05:56:22;;;;;;;1.90;1.20;;;10.10;99.90;;;;;;5052789;28;20682;-73
2021/12/04 05:58:51;;;;;;;3.73;0.70;;;10.10;99.90;;;;;;5052757;28;20291;-70
2021/12/04 06:01:20;;;;;;;1.47;1.10;;;10.10;99.90;;;;;;5052940;28;20654;-70
2021/12/04 06:03:47;;;;;;;1.73;0.90;;;10.00;99.90;;;;;;5052610;28;20644;-70
2021/12/04 06:06:15;;;;;;;2.00;1.30;;;10.10;99.90;;;;;;5053021;28;20237;-70
2021/12/04 06:08:43;;;;;;;1.87;0.80;;;10.10;99.90;;;;;;5052897;28;20206;-70
2021/12/04 06:11:10;;;;;;;2.83;1.73;;;10.10;99.90;;;;;;5053190;28;20620;-69
2021/12/04 06:13:37;;;;;;;1.90;1.30;;;10.10;99.90;;;;;;5052560;28;20207;-69
2021/12/04 06:16:06;;;;;;;1.87;1.50;;;10.10;99.90;;;;;;5052846;28;20237;-70
2021/12/04 06:18:34;;;;;;;1.23;0.90;;;10.10;99.90;;;;;;5053179;28;20229;-72
2021/12/04 06:23:46;;;;;;;1.20;0.80;;;10.20;99.90;;;;;;5052455;28;20210;-73
2021/12/04 06:26:13;;;;;;;1.03;0.67;;;10.10;99.90;;;;;;5052742;28;20612;-72
2021/12/04 06:28:40;;;;;;;2.87;0.80;;;10.10;99.90;;;;;;5052210;28;20206;-71
2021/12/04 06:31:09;;;;;;;1.43;1.00;;;10.10;99.90;;;;;;5052751;28;20634;-72
2021/12/04 06:33:37;;;;;;;2.33;1.03;;;10.00;99.90;;;;;;5052014;28;20206;-72
2021/12/04 06:36:05;;;;;;;0.73;0.73;;;10.00;99.90;;;;;;5052468;28;20293;-72
2021/12/04 06:38:32;;;;;;;1.07;0.73;;;10.00;99.90;;;;;;5052828;28;20210;-72
2021/12/04 06:40:59;;;;;;;0.83;0.60;;;10.00;99.90;;;;;;5052278;28;20309;-72
2021/12/04 06:43:26;;;;;;;1.20;0.53;;;10.00;99.90;;;;;;5052396;28;20203;-73
2021/12/04 06:45:59;;;;;;;1.13;0.90;;;10.00;99.90;;;;;;5052441;28;20288;-73
2021/12/04 06:48:36;;;;;;;0.80;0.70;;;10.00;99.90;;;;;;5052347;28;20203;-74
2021/12/04 06:51:08;;;;;;;2.07;0.80;;;10.00;99.90;;;;;;5052541;28;20203;-73
2021/12/04 06:53:40;;;;;;;0.77;0.50;;;10.10;99.90;;;;;;5052185;28;20207;-73
2021/12/04 06:56:08;;;;;;;1.27;0.70;;;10.10;99.90;;;;;;5051878;28;20217;-73
2021/12/04 06:58:36;;;;;;;1.50;0.70;;;10.10;99.90;;;;;;5052028;28;20671;-69
2021/12/04 07:01:04;;;;;;;0.93;0.70;;;10.10;99.90;;;;;;5052715;28;20206;-69
2021/12/04 07:03:33;;;;;;;1.00;0.57;;;10.40;99.90;;;;;;5052445;28;20285;-73
2021/12/04 07:06:00;;;;;;;2.27;0.93;;;10.50;99.90;;;;;;5051880;28;20660;-74
2021/12/04 07:08:27;;;;;;;1.13;0.40;;;10.40;99.90;;;;;;5052058;28;20199;-73
2021/12/04 07:10:54;;;;;;;1.10;0.70;;;10.40;99.90;;;;;;5051175;28;20211;-73
2021/12/04 07:13:21;;;;;;;1.00;0.80;;;10.40;99.90;;;;;;5051632;28;20238;-72
2021/12/04 07:15:59;;;;;;;1.17;0.70;;;10.40;99.90;;;;;;5051140;28;20256;-71
2021/12/04 07:18:26;;;;;;;0.67;0.60;;;10.30;99.90;;;;;;5051650;28;20638;-73
2021/12/04 07:20:54;;;;;;;1.47;0.90;;;10.30;99.90;;;;;;5051069;28;20211;-72
2021/12/04 07:23:21;;;;;;;1.57;1.47;;;10.30;99.90;;;;;;5051655;28;20206;-73
2021/12/04 07:25:49;;;;;;;2.40;1.43;;;10.20;99.90;;;;;;5050053;28;20226;-75
2021/12/04 07:28:16;;;;;;;1.87;1.10;;;10.20;99.90;;;;;;5051737;28;20199;-74
2021/12/04 07:30:43;;;;;;;1.67;1.23;;;10.30;99.90;;;;;;5051224;28;20256;-72
2021/12/04 07:33:10;;;;;;;1.03;0.83;;;10.30;99.90;;;;;;5051507;28;20203;-72
2021/12/04 07:35:37;;;;;;;1.17;1.07;;;10.30;99.90;;;;;;5051127;28;20211;-72
2021/12/04 07:38:06;;;;;;;1.57;0.63;;;10.30;99.90;;;;;;5051297;28;20253;-72
2021/12/04 07:40:33;;;;;;;0.30;0.20;;;10.40;99.90;;;;;;5051402;28;20198;-72
2021/12/04 07:43:00;;;;;;;0.60;0.33;;;10.80;99.90;;;;;;5051328;28;20645;-72
2021/12/04 07:45:27;;;;;;;1.27;0.83;;;11.00;99.90;;;;;;5051284;28;20288;-72
2021/12/04 07:47:54;;;;;;;2.00;0.30;;;11.20;99.90;;;;;;5051015;28;20264;-72
2021/12/04 07:50:21;;;;;;;0.43;0.30;;;11.40;99.90;;;;;;5050962;28;20575;-70
2021/12/04 07:52:49;;;;;;;0.40;0.23;;;11.50;99.90;;;;;;5050670;28;20257;-73
2021/12/04 07:55:18;;;;;;;0.27;0.27;;;11.60;99.90;;;;;;5050941;28;20658;-70
2021/12/04 07:57:45;;;;;;;1.00;0.30;;;11.70;99.90;;;;;;5057456;28;20563;-71
2021/12/04 08:00:15;;;;;;;0.20;0.20;;;11.70;99.90;;;;;;5075826;28;20202;-72
2021/12/04 08:02:43;;;;;;;0.83;0.37;;;11.70;99.90;;;;;;5077776;28;20214;-72
2021/12/04 08:05:10;;;;;;;0.77;0.40;;;11.70;99.90;;;;;;5067828;28;20229;-71
2021/12/04 08:07:39;;;;;;;0.53;0.53;;;11.70;99.90;;;;;;5070208;28;20255;-71
2021/12/04 08:10:06;;;;;;;0.73;0.50;;;11.80;99.90;;;;;;5070115;28;20212;-72
2021/12/04 08:12:36;;;;;;;0.70;0.50;;;11.90;99.90;;;;;;5071048;28;20662;-71
2021/12/04 08:15:03;;;;;;;0.87;0.50;;;11.90;99.90;;;;;;5064833;28;20206;-71
2021/12/04 08:17:30;;;;;;;1.67;0.85;;;11.90;99.90;;;;;;5059693;28;20210;-73
2021/12/04 08:19:57;;;;;;;0.60;0.43;;;11.90;99.90;;;;;;5066864;28;20219;-71
2021/12/04 08:22:24;;;;;;;0.47;0.30;;;11.90;99.90;;;;;;5068586;28;20259;-71
2021/12/04 08:24:51;;;;;;;0.83;0.20;;;11.90;99.90;;;;;;5069815;28;20271;-71
2021/12/04 08:27:19;;;;;;;0.60;0.40;;;11.90;99.90;;;;;;5070316;28;20206;-71
2021/12/04 08:29:47;;;;;;;1.07;0.37;;;11.80;99.90;;;;;;5070115;28;20210;-71
2021/12/04 08:32:14;;;;;;;0.60;0.30;;;11.70;99.90;;;;;;5069309;28;20673;-71
2021/12/04 08:34:41;;;;;;;0.50;0.40;;;11.60;99.90;;;;;;5080254;28;20266;-71
2021/12/04 08:37:08;;;;;;;0.83;0.30;;;11.50;99.90;;;;;;5079734;28;20255;-71
2021/12/04 08:39:35;;;;;;;0.80;0.63;;;11.40;99.90;;;;;;5081864;28;20209;-71
2021/12/04 08:42:03;;;;;;;0.70;0.60;;;11.30;99.90;;;;;;5090037;28;20250;-72
2021/12/04 08:44:30;;;;;;;2.30;0.90;;;11.20;99.90;;;;;;5080874;28;20254;-71
2021/12/04 08:46:59;;;;;;;7.63;3.93;;;11.10;99.90;;;;;;5073799;28;20210;-71
2021/12/04 08:49:26;;;;;;;0.90;0.70;;;11.10;99.90;;;;;;5070153;28;20213;-73
2021/12/04 08:51:53;;;;;;;1.73;0.80;;;11.00;99.90;;;;;;5060231;28;20233;-74
2021/12/04 08:54:20;;;;;;;0.40;0.40;;;11.10;99.90;;;;;;5070075;28;20733;-76
2021/12/04 08:56:47;;;;;;;1.20;1.00;;;11.10;99.90;;;;;;5073000;28;20201;-76
2021/12/04 08:59:14;;;;;;;1.77;0.50;;;11.10;99.90;;;;;;5079680;28;20210;-76
2021/12/04 09:01:44;;;;;;;0.60;0.60;;;11.00;99.90;;;;;;5073850;28;20198;-76
2021/12/04 09:04:15;;;;;;;2.30;0.40;;;11.00;99.90;;;;;;5074054;28;20213;-75
2021/12/04 09:06:43;;;;;;;3.23;0.60;;;11.00;99.90;;;;;;5073626;28;20234;-75
2021/12/04 09:09:12;;;;;;;0.50;0.50;;;11.00;99.90;;;;;;5074190;28;20202;-76
2021/12/04 09:11:43;;;;;;;1.07;0.50;;;11.00;99.90;;;;;;5073717;28;20624;-77
2021/12/04 09:14:11;;;;;;;0.77;0.50;;;11.00;99.90;;;;;;5077051;28;20249;-76
2021/12/04 09:16:39;;;;;;;1.13;0.53;;;10.90;99.90;;;;;;5087080;28;20210;-75
2021/12/04 09:19:06;;;;;;;2.30;0.50;;;11.00;99.90;;;;;;5092920;28;20213;-75
2021/12/04 09:21:37;;;;;;;1.30;0.73;;;10.90;99.90;;;;;;5094147;28;20213;-75
2021/12/04 09:24:10;;;;;;;1.27;0.90;;;10.90;99.90;;;;;;5082323;28;20259;-75
2021/12/04 09:26:44;;;;;;;0.93;0.50;;;10.90;99.90;;;;;;5073360;28;20230;-76
2021/12/04 09:29:25;;;;;;;1.20;0.70;;;10.80;99.90;;;;;;5073570;28;20203;-77
2021/12/04 09:32:21;;;;;;;1.17;0.50;;;10.80;1.00;;;;;;5073203;28;20304;-76
2021/12/04 10:00:03;;;;;;;1.47;1.37;;;11.00;1.00;;;;;;5075418;28;20788;-76
2021/12/04 10:02:40;;;;;;;0.83;0.60;;;11.00;1.00;;;;;;5085523;28;20240;-76
2021/12/04 10:19:20;;;;;;;1.23;0.90;;;11.10;1.00;;;;;;5035255;28;20199;-74
2021/12/04 10:22:04;;;;;;;1.30;0.47;;;11.10;1.00;;;;;;5068864;28;20245;-77
2021/12/04 10:32:56;;;;;;;1.33;0.93;;;11.20;1.00;;;;;;5050012;28;20551;-75
2021/12/04 10:35:24;;;;;;;3.60;1.27;;;11.10;1.00;;;;;;5072324;28;20251;-74
2021/12/04 10:37:57;;;;;;;5.57;1.70;;;11.10;1.00;;;;;;5072449;28;20202;-74
2021/12/04 10:40:34;;;;;;;0.73;0.70;;;11.10;1.00;;;;;;5060243;28;20249;-75
2021/12/04 10:43:04;;;;;;;1.17;0.70;;;11.10;1.00;;;;;;5067774;28;20205;-75
2021/12/04 10:45:34;;;;;;;1.00;0.90;;;11.20;1.00;;;;;;5081435;28;20615;-75
2021/12/04 10:48:04;;;;;;;1.63;0.97;;;11.20;1.00;;;;;;5071985;28;20202;-74
2021/12/04 10:50:40;;;;;;;1.37;1.10;;;11.20;1.00;;;;;;5075623;28;20213;-74
2021/12/04 10:53:11;;;;;;;1.13;0.93;;;11.20;1.00;;;;;;5063472;28;20288;-74
2021/12/04 10:55:45;;;;;;;0.87;0.80;;;11.30;1.00;;;;;;5075629;28;20300;-75
2021/12/04 11:01:24;;;;;;;1.50;0.57;;;11.30;1.00;;;;;;5070788;28;20198;-78
2021/12/04 11:03:57;;;;;;;1.30;1.20;;;11.30;1.00;;;;;;5080559;28;20696;-75
2021/12/04 11:27:04;;;;;;;2.20;0.90;;;11.90;1.00;;;;;;5072568;28;20260;-75
2021/12/04 11:38:25;;;;;;;2.33;1.03;;;12.40;99.90;;;;;;5069375;28;20197;-74
2021/12/04 11:40:59;;;;;;;0.80;0.65;;;12.50;99.90;;;;;;5051099;28;20211;-76
2021/12/04 11:43:32;;;;;;;1.38;1.00;;;12.40;99.90;;;;;;5071724;28;20221;-76
2021/12/04 11:46:13;;;;;;;1.00;0.70;;;12.40;99.90;;;;;;5074012;28;20259;-75
2021/12/04 11:48:44;;;;;;;1.05;0.60;;;12.30;1.00;;;;;;5070385;28;20774;-75
2021/12/04 11:51:16;;;;;;;0.80;0.40;;;12.00;1.00;;;;;;5067225;28;20194;-73
2021/12/04 11:53:43;;;;;;;1.50;0.80;;;11.80;1.00;;;;;;5061824;28;20210;-74
2021/12/04 11:56:15;;;;;;;0.98;0.50;;;11.70;1.00;;;;;;5071226;28;20254;-76
2021/12/04 11:58:44;;;;;;;0.85;0.60;;;11.70;1.00;;;;;;5070591;28;20243;-76
2021/12/04 12:01:22;;;;;;;2.90;0.65;;;11.60;1.00;;;;;;5071001;28;20279;-77
2021/12/04 12:03:53;;;;;;;0.68;0.63;;;11.60;1.00;;;;;;5070673;28;20201;-74
2021/12/04 12:06:31;;;;;;;1.83;1.02;;;11.60;1.00;;;;;;5070724;28;20701;-75
2021/12/04 12:09:05;;;;;;;3.45;0.93;;;11.60;1.00;;;;;;5070495;28;20285;-74
2021/12/04 12:11:32;;;;;;;1.70;1.00;;;11.70;1.00;;;;;;5071046;28;20194;-75
2021/12/04 12:14:04;;;;;;;1.58;0.60;;;11.90;1.00;;;;;;5070957;28;20237;-75
2021/12/04 12:16:36;;;;;;;0.98;0.65;;;11.80;1.00;;;;;;5069324;28;20202;-76
2021/12/04 12:19:08;;;;;;;1.25;1.13;;;11.80;1.00;;;;;;5053585;28;20674;-76
2021/12/04 12:21:50;;;;;;;1.23;0.98;;;11.70;1.00;;;;;;5050607;28;20268;-76
2021/12/04 12:27:25;;;;;;;3.80;1.10;;;11.70;1.00;;;;;;5048473;28;20321;-75
2021/12/04 12:32:58;;;;;;;2.10;0.60;;;12.30;1.00;;;;;;5070187;28;20696;-77
2021/12/04 12:38:29;;;;;;;2.30;0.75;;;12.20;99.90;;;;;;5070615;28;20229;-74
2021/12/04 12:41:02;;;;;;;1.67;0.90;;;12.20;1.00;;;;;;5079939;28;20205;-75
2021/12/04 12:43:38;;;;;;;2.75;1.65;;;12.20;99.90;;;;;;5075105;28;20691;-74
2021/12/04 12:46:06;;;;;;;2.28;1.10;;;12.30;99.90;;;;;;5076539;28;20275;-74
2021/12/04 12:48:53;;;;;;;2.22;0.73;;;12.20;99.90;;;;;;5090938;28;20201;-74
2021/12/04 12:51:27;;;;;;;4.57;1.13;;;12.20;99.90;;;;;;5090603;28;20266;-75
2021/12/04 12:53:55;;;;;;;3.33;1.27;;;12.10;99.90;;;;;;5090197;28;20552;-75
2021/12/04 12:56:25;;;;;;;9.00;2.20;;;12.30;99.90;;;;;;5083925;28;20271;-74
2021/12/04 12:58:56;;;;;;;2.65;1.27;;;12.30;99.90;;;;;;5076856;28;20205;-73
2021/12/04 13:12:56;;;;;;;6.18;0.88;;;13.10;99.90;;;;;;5070637;28;20208;-77
2021/12/04 13:15:35;;;;;;;4.60;1.20;;;13.10;99.90;;;;;;5063521;28;20589;-73
2021/12/04 13:18:15;;;;;;;3.22;1.17;;;12.90;99.90;;;;;;5069175;28;20202;-74
2021/12/04 13:20:44;;;;;;;9.57;1.45;;;12.90;99.90;;;;;;5060309;28;20267;-75
2021/12/04 13:23:14;;;;;;;6.07;2.15;;;12.90;99.90;;;;;;5065189;28;20256;-77
2021/12/04 13:25:50;;;;;;;8.20;4.20;;;12.90;99.90;;;;;;5076063;28;20205;-76
2021/12/04 13:28:20;;;;;;;8.18;2.13;;;12.80;99.90;;;;;;5077605;28;20745;-75
2021/12/04 13:30:47;;;;;;;9.90;2.88;;;12.70;99.90;;;;;;5067141;28;20218;-76
2021/12/04 13:33:14;;;;;;;8.07;1.83;;;12.50;99.90;;;;;;5070489;28;20210;-79
2021/12/04 13:35:45;;;;;;;7.97;1.67;;;12.50;99.90;;;;;;5070013;28;20207;-76
2021/12/04 13:38:15;;;;;;;6.90;2.85;;;12.70;99.90;;;;;;5057822;28;20206;-75
2021/12/04 13:40:44;;;;;;;7.50;1.95;;;12.70;99.90;;;;;;5063173;28;20206;-74
2021/12/04 13:43:12;;;;;;;5.97;1.85;;;12.80;99.90;;;;;;5073199;28;20206;-73
2021/12/04 13:45:41;;;;;;;6.03;1.70;;;12.90;99.90;;;;;;5072557;28;20206;-73
2021/12/04 13:48:08;;;;;;;8.30;1.98;;;13.00;99.90;;;;;;5073060;28;20202;-72
2021/12/04 13:50:47;;;;;;;8.60;2.15;;;13.50;99.90;;;;;;5059546;28;20210;-76
2021/12/04 13:53:19;;;;;;;11.10;2.35;;;13.60;99.90;;;;;;5060589;28;20263;-73
2021/12/04 13:55:49;;;;;;;5.57;2.25;;;13.50;99.90;;;;;;5072508;28;20260;-72
2021/12/04 13:58:16;;;;;;;4.75;1.58;;;13.40;99.90;;;;;;5073002;28;20206;-71
2021/12/04 14:00:44;;;;;;;5.47;2.20;;;13.20;99.90;;;;;;5072238;28;20213;-71
2021/12/04 14:03:12;;;;;;;7.70;1.88;;;13.10;99.90;;;;;;5072792;28;20297;-73
2021/12/04 14:05:40;;;;;;;7.28;2.10;;;12.90;99.90;;;;;;5072425;28;20289;-72
2021/12/04 14:08:10;;;;;;;8.30;2.08;;;12.80;99.90;;;;;;5072994;28;20332;-72
2021/12/04 14:10:42;;;;;;;7.38;2.97;;;12.80;99.90;;;;;;5059296;28;20734;-73
2021/12/04 14:13:09;;;;;;;9.25;3.70;;;12.90;99.90;;;;;;5059604;28;20198;-73
2021/12/04 14:15:37;;;;;;;7.40;2.53;;;13.00;99.90;;;;;;5069580;28;20252;-73
2021/12/04 14:18:06;;;;;;;11.15;3.03;;;12.90;99.90;;;;;;5083919;28;20580;-73
2021/12/04 14:20:35;;;;;;;6.43;2.60;;;12.70;99.90;;;;;;5068451;28;20211;-78
2021/12/04 14:23:02;;;;;;;7.40;2.58;;;12.60;99.90;;;;;;5062522;28;20261;-76
2021/12/04 14:25:31;;;;;;;12.48;3.75;;;12.50;99.90;;;;;;5070296;28;20248;-75
2021/12/04 14:28:01;;;;;;;6.05;2.33;;;12.20;99.90;;;;;;5071827;28;20264;-75
2021/12/04 14:30:32;;;;;;;9.25;2.35;;;12.00;99.90;;;;;;5072089;28;20666;-75
2021/12/04 14:33:01;;;;;;;6.78;2.08;;;11.80;99.90;;;;;;5074903;28;20716;-75
2021/12/04 14:35:31;;;;;;;10.27;2.85;;;11.60;99.90;;;;;;5066893;28;20298;-76
2021/12/04 14:38:00;;;;;;;6.85;2.40;;;11.60;99.90;;;;;;5055477;28;20629;-76
2021/12/04 14:40:31;;;;;;;8.55;3.22;;;11.70;99.90;;;;;;5071179;28;20251;-77
2021/12/04 14:43:01;;;;;;;9.82;3.42;;;12.00;99.90;;;;;;5066328;28;20259;-76
2021/12/04 14:45:31;;;;;;;11.90;2.78;;;12.10;99.90;;;;;;5076741;28;20288;-76
2021/12/04 14:48:03;;;;;;;10.33;3.57;;;12.20;99.90;;;;;;5075231;28;20237;-77
2021/12/04 14:50:31;;;;;;;8.95;2.40;;;12.10;99.90;;;;;;5079229;28;20636;-75
2021/12/04 14:53:01;;;;;;;5.72;2.38;;;12.00;99.90;;;;;;5071606;28;20206;-76
2021/12/04 14:55:30;;;;;;;9.73;2.92;;;12.00;99.90;;;;;;5070163;28;20203;-76
2021/12/04 14:57:59;;;;;;;9.90;3.30;;;11.90;99.90;;;;;;5073259;28;20206;-76
2021/12/04 15:00:29;;;;;;;5.55;1.80;;;11.80;99.90;;;;;;5071827;28;20206;-75
2021/12/04 15:02:58;;;;;;;9.93;2.00;;;11.40;99.90;;;;;;5071485;28;20256;-74
2021/12/04 15:05:31;;;;;;;6.55;1.88;;;11.00;99.90;;;;;;5071414;28;20206;-75
2021/12/04 15:08:11;;;;;;;6.47;3.63;;;10.80;99.90;;;;;;5071169;28;20234;-74
2021/12/04 15:10:39;;;;;;;7.40;1.87;;;10.80;99.90;;;;;;5071057;28;20260;-73
2021/12/04 15:13:17;;;;;;;4.70;1.30;;;10.70;99.90;;;;;;5071625;28;20206;-73
2021/12/04 15:15:45;;;;;;;5.80;1.93;;;10.70;99.90;;;;;;5072689;28;20209;-73
2021/12/04 15:18:14;;;;;;;6.40;2.08;;;10.70;99.90;;;;;;5074939;28;20210;-73
2021/12/04 15:20:53;;;;;;;7.70;2.70;;;10.70;99.90;;;;;;5064987;28;20214;-72
2021/12/04 15:23:23;;;;;;;6.93;2.60;;;10.70;99.90;;;;;;5070984;28;20205;-75
2021/12/04 15:25:54;;;;;;;7.73;2.77;;;10.70;99.90;;;;;;5080029;28;20209;-73
2021/12/04 15:28:25;;;;;;;10.27;2.30;;;10.80;99.90;;;;;;5064556;28;20330;-78
2021/12/04 15:30:55;;;;;;;6.23;1.57;;;10.80;99.90;;;;;;5067767;28;20623;-74
2021/12/04 15:33:27;;;;;;;3.73;1.83;;;10.80;99.90;;;;;;5089701;28;20219;-77
2021/12/04 15:35:55;;;;;;;5.83;2.17;;;10.80;99.90;;;;;;5089305;28;20216;-75